Terminal Aerodrome Forecast
Issued by NWS Wilmington, OH

Current Version | Previous Version | Graphics & Text | Print | Product List | Glossary On
Versions: 1 2 3 4 5 6 7 8 9 10 11 12 13 14 15 16 17 18 19 20 21 22
000
FTUS41 KILN 281134
TAFILN
TAF
KILN 281134Z 2812/2912 03003KT P6SM SCT130 OVC250
     FM281300 02004KT P6SM SCT120 BKN250
     FM281800 02006KT P6SM VCTS SCT040CB BKN250
     FM290000 03004KT P6SM SCT130 BKN250=

USA.gov is the U.S. government's official web portal to all federal, state and local government web resources and services.